Time;durP1;ratioP1;P1;durP2;ratioP2;P2;SDS_P1;SDS_P2;PMS_P1;PMS_P2;Temp;Humidity;BMP_temperature;BMP_pressure;BME280_temperature;BME280_humidity;BME280_pressure;Samples;Min_cycle;Max_cycle;Signal;HPM_P1;HPM_P2
2023/07/17 00:00:57;;;;;;;8.03;4.50;;;;;;;;;;10337352;28;20042;-76
2023/07/17 00:05:58;;;;;;;5.23;3.93;;;;;;;;;;10339924;28;20496;-73
2023/07/17 00:10:58;;;;;;;3.57;3.27;;;;;;;;;;10340557;28;20041;-78
2023/07/17 00:15:58;;;;;;;5.47;4.00;;;;;;;;;;10330065;28;20046;-78
2023/07/17 00:20:59;;;;;;;6.53;4.10;;;;;;;;;;10334466;28;20671;-77
2023/07/17 00:25:59;;;;;;;4.47;3.93;;;;;;;;;;10332156;28;20044;-77
2023/07/17 00:30:59;;;;;;;5.40;3.80;;;;;;;;;;10292703;28;20041;-77
2023/07/17 00:36:00;;;;;;;5.47;3.77;;;;;;;;;;10339403;28;20060;-77
2023/07/17 00:41:00;;;;;;;5.68;4.05;;;;;;;;;;10338578;28;20030;-78
2023/07/17 00:46:04;;;;;;;5.80;4.63;;;;;;;;;;10337356;28;20072;-75
2023/07/17 00:51:04;;;;;;;6.70;4.13;;;;;;;;;;10337649;28;20077;-76
2023/07/17 00:56:06;;;;;;;6.63;4.10;;;;;;;;;;10323158;28;20145;-76
2023/07/17 01:01:07;;;;;;;6.23;4.00;;;;;;;;;;10317870;28;20411;-77
2023/07/17 01:06:07;;;;;;;6.73;4.40;;;;;;;;;;10335996;28;20292;-76
2023/07/17 01:11:08;;;;;;;5.68;4.60;;;;;;;;;;10316581;28;20333;-77
2023/07/17 01:16:09;;;;;;;4.90;4.40;;;;;;;;;;10340820;28;20188;-76
2023/07/17 01:21:12;;;;;;;6.00;4.22;;;;;;;;;;10333721;28;20045;-76
2023/07/17 01:26:13;;;;;;;4.85;4.22;;;;;;;;;;10343649;28;20116;-78
2023/07/17 01:31:13;;;;;;;4.90;4.07;;;;;;;;;;10333642;28;20045;-78
2023/07/17 01:36:15;;;;;;;6.40;4.27;;;;;;;;;;10341284;28;20128;-77
2023/07/17 01:41:15;;;;;;;5.53;4.40;;;;;;;;;;10332036;28;20087;-77
2023/07/17 01:46:15;;;;;;;6.13;4.05;;;;;;;;;;10336006;28;20099;-77
2023/07/17 01:51:17;;;;;;;5.93;4.55;;;;;;;;;;10323367;28;20148;-79
2023/07/17 01:56:17;;;;;;;5.13;4.33;;;;;;;;;;10343878;28;20053;-78
2023/07/17 02:01:18;;;;;;;5.63;3.95;;;;;;;;;;10346214;28;20732;-76
2023/07/17 02:06:20;;;;;;;4.82;4.32;;;;;;;;;;10352434;28;20045;-78
2023/07/17 02:11:20;;;;;;;5.28;4.40;;;;;;;;;;10347801;28;20030;-77
2023/07/17 02:16:21;;;;;;;4.85;4.35;;;;;;;;;;10349414;28;20057;-78
2023/07/17 02:21:21;;;;;;;4.97;3.70;;;;;;;;;;10331687;28;20477;-77
2023/07/17 02:26:22;;;;;;;4.68;4.03;;;;;;;;;;10333313;28;20037;-76
2023/07/17 02:31:22;;;;;;;6.90;4.57;;;;;;;;;;10336704;28;20046;-76
2023/07/17 02:36:23;;;;;;;4.53;3.63;;;;;;;;;;10338438;28;20319;-76
2023/07/17 02:41:24;;;;;;;4.65;3.88;;;;;;;;;;10342461;28;20042;-76
2023/07/17 02:46:24;;;;;;;5.77;3.80;;;;;;;;;;10342552;28;20031;-77
2023/07/17 02:51:25;;;;;;;7.27;4.50;;;;;;;;;;10344051;28;20041;-79
2023/07/17 02:56:25;;;;;;;5.70;4.23;;;;;;;;;;10353028;28;20316;-77
2023/07/17 03:01:26;;;;;;;8.43;4.40;;;;;;;;;;10341460;28;20070;-77
2023/07/17 03:06:26;;;;;;;7.23;4.80;;;;;;;;;;10342623;28;20789;-76
2023/07/17 03:11:26;;;;;;;5.20;4.23;;;;;;;;;;10356852;28;20948;-75
2023/07/17 03:16:27;;;;;;;5.20;4.13;;;;;;;;;;10340986;28;20045;-77
2023/07/17 03:21:29;;;;;;;6.38;4.15;;;;;;;;;;10328163;28;20714;-78
2023/07/17 03:26:30;;;;;;;5.88;4.65;;;;;;;;;;10355324;28;20073;-76
2023/07/17 03:31:31;;;;;;;6.22;4.50;;;;;;;;;;10343303;28;20045;-73
2023/07/17 03:36:31;;;;;;;4.80;4.40;;;;;;;;;;10341625;28;20042;-74
2023/07/17 03:41:31;;;;;;;5.03;4.53;;;;;;;;;;10337736;28;20150;-75
2023/07/17 03:46:33;;;;;;;7.07;5.22;;;;;;;;;;10333597;28;20049;-74
2023/07/17 03:51:33;;;;;;;6.78;5.30;;;;;;;;;;10329703;28;20037;-76
2023/07/17 03:56:35;;;;;;;6.87;5.10;;;;;;;;;;10330525;28;20097;-77
2023/07/17 04:01:38;;;;;;;7.47;5.57;;;;;;;;;;10307058;28;20450;-79
2023/07/17 04:06:38;;;;;;;5.60;4.95;;;;;;;;;;10340480;28;20046;-76
2023/07/17 04:11:39;;;;;;;7.83;5.40;;;;;;;;;;10343524;28;20037;-78
2023/07/17 04:16:40;;;;;;;6.75;4.95;;;;;;;;;;10331651;28;20459;-78
2023/07/17 04:21:41;;;;;;;6.90;5.40;;;;;;;;;;10324071;28;20043;-75
2023/07/17 04:26:42;;;;;;;8.35;5.13;;;;;;;;;;10321965;28;20049;-76
2023/07/17 04:31:43;;;;;;;7.18;5.60;;;;;;;;;;10329229;28;20573;-74
2023/07/17 04:36:44;;;;;;;5.90;4.68;;;;;;;;;;10336681;28;20591;-75
2023/07/17 04:41:45;;;;;;;6.30;5.03;;;;;;;;;;10325799;28;20038;-76
2023/07/17 04:46:48;;;;;;;6.93;5.20;;;;;;;;;;10327323;28;20066;-75
2023/07/17 04:51:49;;;;;;;6.82;5.90;;;;;;;;;;10329687;28;20080;-76
2023/07/17 04:56:50;;;;;;;7.13;5.63;;;;;;;;;;10335045;28;20124;-76
2023/07/17 05:01:54;;;;;;;8.10;6.07;;;;;;;;;;10317052;28;20157;-75
2023/07/17 05:06:57;;;;;;;7.85;5.60;;;;;;;;;;10340889;28;20121;-81
2023/07/17 05:11:59;;;;;;;8.83;6.40;;;;;;;;;;10315046;28;20057;-73
2023/07/17 05:17:00;;;;;;;7.05;5.65;;;;;;;;;;10319351;28;20128;-72
2023/07/17 05:22:00;;;;;;;6.35;5.32;;;;;;;;;;10327383;28;20042;-82
2023/07/17 05:27:01;;;;;;;8.65;5.70;;;;;;;;;;10331251;28;20038;-81
2023/07/17 05:32:03;;;;;;;7.40;6.43;;;;;;;;;;10347513;28;20061;-81
2023/07/17 05:37:03;;;;;;;11.35;6.50;;;;;;;;;;10343641;28;20781;-81
2023/07/17 05:42:04;;;;;;;6.72;5.45;;;;;;;;;;10347507;28;20037;-73
2023/07/17 05:47:05;;;;;;;8.63;5.88;;;;;;;;;;10318438;28;20038;-73
2023/07/17 05:52:06;;;;;;;7.72;6.07;;;;;;;;;;10333754;28;20076;-74
2023/07/17 05:57:07;;;;;;;11.55;6.28;;;;;;;;;;10318256;28;20045;-71
2023/07/17 06:02:09;;;;;;;7.80;5.93;;;;;;;;;;10318856;28;20073;-74
2023/07/17 06:07:10;;;;;;;8.00;5.05;;;;;;;;;;10332784;28;20038;-72
2023/07/17 06:12:11;;;;;;;7.72;5.10;;;;;;;;;;10309461;28;20843;-73
2023/07/17 06:17:11;;;;;;;6.38;4.60;;;;;;;;;;10333901;28;20057;-72
2023/07/17 06:22:11;;;;;;;7.60;4.30;;;;;;;;;;10327117;28;20804;-72
2023/07/17 06:27:12;;;;;;;5.43;4.90;;;;;;;;;;10347606;28;20629;-71
2023/07/17 06:32:13;;;;;;;6.55;4.30;;;;;;;;;;10338744;28;20029;-73
2023/07/17 06:37:13;;;;;;;5.80;4.05;;;;;;;;;;10341571;28;20451;-72
2023/07/17 06:42:14;;;;;;;6.20;4.60;;;;;;;;;;10341785;28;20039;-73
2023/07/17 06:47:14;;;;;;;5.63;4.13;;;;;;;;;;10315255;28;20038;-70
2023/07/17 06:52:15;;;;;;;5.53;4.00;;;;;;;;;;10342551;28;20040;-71
2023/07/17 06:57:15;;;;;;;5.83;4.40;;;;;;;;;;10337416;28;20099;-73
2023/07/17 07:02:15;;;;;;;6.95;4.03;;;;;;;;;;10338983;28;20029;-75
2023/07/17 07:07:16;;;;;;;7.07;4.90;;;;;;;;;;10344079;28;20049;-71
2023/07/17 07:12:17;;;;;;;7.17;4.63;;;;;;;;;;10335521;28;20048;-72
2023/07/17 07:17:17;;;;;;;5.35;3.85;;;;;;;;;;10339701;28;20521;-72
2023/07/17 07:22:18;;;;;;;5.03;3.90;;;;;;;;;;10344146;28;20057;-71
2023/07/17 07:27:18;;;;;;;5.72;4.00;;;;;;;;;;10322325;28;20113;-73
2023/07/17 07:32:19;;;;;;;5.97;4.17;;;;;;;;;;10340038;28;20046;-70
2023/07/17 07:37:19;;;;;;;7.57;3.50;;;;;;;;;;10341535;28;20882;-70
2023/07/17 07:42:19;;;;;;;5.20;3.77;;;;;;;;;;10336059;28;20042;-72
2023/07/17 07:47:20;;;;;;;6.20;3.70;;;;;;;;;;10361563;28;20038;-73
2023/07/17 07:52:20;;;;;;;6.73;3.63;;;;;;;;;;10341797;28;20295;-73
2023/07/17 07:57:22;;;;;;;6.43;3.70;;;;;;;;;;10322368;28;20069;-71
2023/07/17 08:02:23;;;;;;;5.38;3.20;;;;;;;;;;10343511;28;20599;-70
2023/07/17 08:07:24;;;;;;;5.83;3.03;;;;;;;;;;10345050;28;20087;-72
2023/07/17 08:12:25;;;;;;;6.55;3.50;;;;;;;;;;10343259;28;20053;-72
2023/07/17 08:17:25;;;;;;;5.05;3.55;;;;;;;;;;10353665;28;20060;-73
2023/07/17 08:22:25;;;;;;;8.00;3.30;;;;;;;;;;10320442;28;20034;-73
2023/07/17 08:27:26;;;;;;;6.40;3.78;;;;;;;;;;10345312;28;20176;-72
2023/07/17 08:32:26;;;;;;;4.90;3.90;;;;;;;;;;10338462;28;20073;-75
2023/07/17 08:37:26;;;;;;;5.77;3.40;;;;;;;;;;10338378;28;20057;-73
2023/07/17 08:42:27;;;;;;;5.63;4.00;;;;;;;;;;10333058;28;20076;-76
2023/07/17 08:47:27;;;;;;;4.50;3.50;;;;;;;;;;10340557;28;20316;-76
2023/07/17 08:52:29;;;;;;;5.82;3.85;;;;;;;;;;10333359;28;20498;-75
2023/07/17 08:57:31;;;;;;;4.73;3.67;;;;;;;;;;10344546;28;20181;-76
2023/07/17 09:02:32;;;;;;;5.15;3.33;;;;;;;;;;10338130;28;20039;-76
2023/07/17 09:07:32;;;;;;;8.05;4.05;;;;;;;;;;10311534;28;20065;-71
2023/07/17 09:12:32;;;;;;;8.43;3.87;;;;;;;;;;10338315;28;20045;-72
2023/07/17 09:17:33;;;;;;;7.57;4.00;;;;;;;;;;10333265;28;20049;-72
2023/07/17 09:22:33;;;;;;;7.20;4.28;;;;;;;;;;10335890;28;20856;-72
2023/07/17 09:27:47;;;;;;;4.53;3.03;;;;;;;;;;10339047;28;20404;-73
2023/07/17 09:32:48;;;;;;;6.63;3.90;;;;;;;;;;10335526;28;20040;-72
2023/07/17 09:37:49;;;;;;;7.00;4.00;;;;;;;;;;10336925;28;20037;-72
2023/07/17 09:42:53;;;;;;;6.82;4.03;;;;;;;;;;10330229;28;20037;-71
2023/07/17 09:47:54;;;;;;;6.95;4.45;;;;;;;;;;10342747;28;20071;-71
2023/07/17 09:52:55;;;;;;;5.57;3.80;;;;;;;;;;10344431;28;20392;-71
2023/07/17 09:57:57;;;;;;;6.15;4.20;;;;;;;;;;10333930;28;20148;-71
2023/07/17 10:03:00;;;;;;;8.23;4.78;;;;;;;;;;10331970;28;20037;-72
2023/07/17 10:08:03;;;;;;;5.47;4.00;;;;;;;;;;10337795;28;20060;-71
2023/07/17 10:13:05;;;;;;;5.57;3.58;;;;;;;;;;10336970;28;20104;-71
2023/07/17 10:18:10;;;;;;;5.95;3.80;;;;;;;;;;10334795;28;20123;-73
2023/07/17 10:23:24;;;;;;;7.35;4.53;;;;;;;;;;10329013;28;20034;-73
2023/07/17 10:28:31;;;;;;;6.47;3.80;;;;;;;;;;10329721;28;20212;-72
2023/07/17 10:33:35;;;;;;;6.65;3.70;;;;;;;;;;10323530;28;20046;-69
2023/07/17 10:38:39;;;;;;;5.25;3.45;;;;;;;;;;10314543;28;20038;-73
2023/07/17 10:43:54;;;;;;;5.65;3.70;;;;;;;;;;10342627;28;20052;-73
2023/07/17 10:49:05;;;;;;;4.20;3.53;;;;;;;;;;10339657;28;20054;-73
2023/07/17 10:54:06;;;;;;;7.00;3.58;;;;;;;;;;10340293;28;20049;-74
2023/07/17 10:59:06;;;;;;;5.47;4.07;;;;;;;;;;10342804;28;20045;-72
2023/07/17 11:04:09;;;;;;;5.80;4.13;;;;;;;;;;10340088;28;20084;-72
2023/07/17 11:09:10;;;;;;;4.63;3.60;;;;;;;;;;10341349;28;20109;-74
2023/07/17 11:14:10;;;;;;;4.83;3.93;;;;;;;;;;10338995;28;20187;-73
2023/07/17 11:19:11;;;;;;;4.57;3.30;;;;;;;;;;10343203;28;20034;-73
2023/07/17 11:24:11;;;;;;;6.40;4.03;;;;;;;;;;10344040;28;20034;-74
2023/07/17 11:29:12;;;;;;;7.23;3.63;;;;;;;;;;10345263;28;20061;-73
2023/07/17 11:34:12;;;;;;;6.10;4.00;;;;;;;;;;10345493;28;20145;-72
2023/07/17 11:39:14;;;;;;;6.53;3.27;;;;;;;;;;10323144;28;20376;-73
2023/07/17 11:44:15;;;;;;;4.63;3.53;;;;;;;;;;10347053;28;20048;-73
2023/07/17 11:49:17;;;;;;;4.78;3.30;;;;;;;;;;10345422;28;20670;-73
2023/07/17 11:54:18;;;;;;;4.15;3.50;;;;;;;;;;10340532;28;20046;-76
2023/07/17 11:59:22;;;;;;;4.47;3.60;;;;;;;;;;10345318;28;20061;-77
2023/07/17 12:04:29;;;;;;;5.68;4.00;;;;;;;;;;10327269;28;20198;-79
2023/07/17 12:09:29;;;;;;;4.78;3.70;;;;;;;;;;10333300;28;21435;-77
2023/07/17 12:14:29;;;;;;;6.07;3.80;;;;;;;;;;10326741;28;20056;-78
2023/07/17 12:19:30;;;;;;;5.70;3.73;;;;;;;;;;10351460;28;21056;-75
2023/07/17 12:24:30;;;;;;;5.70;4.00;;;;;;;;;;10345488;28;20072;-75
2023/07/17 12:29:31;;;;;;;4.23;3.47;;;;;;;;;;10345665;28;20112;-77
2023/07/17 12:34:31;;;;;;;5.07;3.63;;;;;;;;;;10339590;28;20108;-77
2023/07/17 12:39:31;;;;;;;5.47;3.93;;;;;;;;;;10340161;28;20630;-76
2023/07/17 12:44:33;;;;;;;6.47;3.87;;;;;;;;;;10319595;28;20037;-77
2023/07/17 12:49:33;;;;;;;5.90;3.95;;;;;;;;;;10334581;28;20033;-78
2023/07/17 12:54:33;;;;;;;6.23;4.00;;;;;;;;;;10332932;28;20054;-77
2023/07/17 12:59:34;;;;;;;5.43;3.97;;;;;;;;;;10332498;28;20836;-78
2023/07/17 13:04:34;;;;;;;4.23;3.60;;;;;;;;;;10334971;28;20077;-75
2023/07/17 13:09:35;;;;;;;6.33;3.83;;;;;;;;;;10341397;28;20126;-75
2023/07/17 13:14:35;;;;;;;6.23;4.30;;;;;;;;;;10337702;28;20596;-79
2023/07/17 13:19:38;;;;;;;6.27;3.80;;;;;;;;;;10339658;28;20039;-75
2023/07/17 13:24:39;;;;;;;4.68;3.88;;;;;;;;;;10344415;28;20070;-79
2023/07/17 13:29:40;;;;;;;8.47;5.23;;;;;;;;;;10338136;28;20469;-78
2023/07/17 13:34:42;;;;;;;7.18;4.32;;;;;;;;;;10336169;28;20042;-80
2023/07/17 13:39:43;;;;;;;7.83;4.20;;;;;;;;;;10325407;28;20105;-78
2023/07/17 13:44:43;;;;;;;4.60;3.70;;;;;;;;;;10334871;28;20037;-80
2023/07/17 13:49:43;;;;;;;5.90;3.80;;;;;;;;;;10335281;28;20030;-76
2023/07/17 13:54:44;;;;;;;4.80;3.70;;;;;;;;;;10341471;28;20511;-76
2023/07/17 13:59:44;;;;;;;5.27;3.97;;;;;;;;;;10336204;28;20475;-78
2023/07/17 14:04:44;;;;;;;4.85;4.00;;;;;;;;;;10336083;28;20942;-75
2023/07/17 14:09:45;;;;;;;7.03;3.87;;;;;;;;;;10332100;28;20030;-76
2023/07/17 14:14:45;;;;;;;6.60;4.37;;;;;;;;;;10340643;28;20080;-81
2023/07/17 14:19:45;;;;;;;5.73;3.83;;;;;;;;;;10339510;28;20396;-77
2023/07/17 14:24:46;;;;;;;4.93;4.00;;;;;;;;;;10344175;28;21204;-77
2023/07/17 14:29:46;;;;;;;5.23;3.60;;;;;;;;;;10343684;28;20678;-75
2023/07/17 14:34:48;;;;;;;5.57;4.20;;;;;;;;;;10343379;28;20564;-76
2023/07/17 14:39:48;;;;;;;5.78;3.58;;;;;;;;;;10337079;28;20049;-75
2023/07/17 14:44:49;;;;;;;5.33;4.00;;;;;;;;;;10320297;28;20043;-78
2023/07/17 14:49:50;;;;;;;5.23;3.63;;;;;;;;;;10326444;28;20131;-77
2023/07/17 14:54:50;;;;;;;6.50;3.92;;;;;;;;;;10325927;28;20489;-79
2023/07/17 14:59:51;;;;;;;7.33;3.70;;;;;;;;;;10325111;28;20065;-76
2023/07/17 15:04:51;;;;;;;7.13;4.40;;;;;;;;;;10340174;28;20049;-77
2023/07/17 15:09:51;;;;;;;4.77;3.60;;;;;;;;;;10344353;28;20042;-75
2023/07/17 15:14:52;;;;;;;7.57;3.70;;;;;;;;;;10346464;28;20046;-75
2023/07/17 15:19:53;;;;;;;5.70;3.93;;;;;;;;;;10332446;28;20041;-75
2023/07/17 15:24:53;;;;;;;5.00;3.50;;;;;;;;;;10345485;28;20960;-76
2023/07/17 15:29:54;;;;;;;6.77;3.83;;;;;;;;;;10344096;28;20046;-76
2023/07/17 15:34:55;;;;;;;6.90;3.77;;;;;;;;;;10342405;28;20054;-81
2023/07/17 15:39:55;;;;;;;5.07;3.60;;;;;;;;;;10344144;28;20085;-77
2023/07/17 15:44:56;;;;;;;4.87;3.60;;;;;;;;;;10342760;28;20057;-81
2023/07/17 15:49:56;;;;;;;6.03;3.87;;;;;;;;;;10351909;28;20030;-81
2023/07/17 15:54:56;;;;;;;7.13;3.50;;;;;;;;;;10365626;28;20057;-82
2023/07/17 15:59:57;;;;;;;5.07;3.53;;;;;;;;;;10351784;28;20591;-79
2023/07/17 16:04:57;;;;;;;5.13;3.77;;;;;;;;;;10356587;28;20046;-81
2023/07/17 16:09:58;;;;;;;6.17;3.47;;;;;;;;;;10355382;28;20160;-83
2023/07/17 16:14:58;;;;;;;3.77;3.07;;;;;;;;;;10354196;28;20163;-81
2023/07/17 16:19:58;;;;;;;4.50;3.73;;;;;;;;;;10352514;28;20045;-81
2023/07/17 16:24:59;;;;;;;4.60;3.30;;;;;;;;;;10357417;28;20360;-82
2023/07/17 16:29:59;;;;;;;6.13;3.70;;;;;;;;;;10348766;28;20114;-81
2023/07/17 16:34:59;;;;;;;6.90;3.80;;;;;;;;;;10351457;28;20053;-82
2023/07/17 16:40:00;;;;;;;5.13;3.27;;;;;;;;;;10333195;28;20048;-81
2023/07/17 16:45:03;;;;;;;4.53;3.00;;;;;;;;;;10328264;28;20184;-79
2023/07/17 16:50:04;;;;;;;4.10;3.20;;;;;;;;;;10353290;28;20056;-81
2023/07/17 16:55:05;;;;;;;6.27;3.17;;;;;;;;;;10343559;28;20050;-81
2023/07/17 17:00:06;;;;;;;4.87;3.50;;;;;;;;;;10353716;28;20513;-80
2023/07/17 17:05:06;;;;;;;4.93;3.43;;;;;;;;;;10376637;28;20092;-80
2023/07/17 17:10:07;;;;;;;3.63;2.87;;;;;;;;;;10373719;28;20100;-80
2023/07/17 17:15:07;;;;;;;4.57;3.67;;;;;;;;;;10345204;28;20050;-79
2023/07/17 17:20:09;;;;;;;4.23;3.70;;;;;;;;;;10341289;28;20042;-84
2023/07/17 17:25:09;;;;;;;4.15;3.20;;;;;;;;;;10347809;28;20285;-80
2023/07/17 17:30:11;;;;;;;3.50;3.10;;;;;;;;;;10351070;28;20034;-83
2023/07/17 17:35:11;;;;;;;8.15;3.17;;;;;;;;;;10349473;28;20046;-80
2023/07/17 17:40:12;;;;;;;4.97;3.00;;;;;;;;;;10339970;28;20030;-81
2023/07/17 17:45:14;;;;;;;4.63;2.87;;;;;;;;;;10335995;28;20404;-81
2023/07/17 17:50:16;;;;;;;4.47;3.35;;;;;;;;;;10330187;28;20069;-82
2023/07/17 17:55:16;;;;;;;4.18;2.80;;;;;;;;;;10336582;28;20041;-81
2023/07/17 18:00:17;;;;;;;3.37;3.07;;;;;;;;;;10353718;28;20534;-81
2023/07/17 18:05:22;;;;;;;4.43;2.80;;;;;;;;;;10355028;28;20059;-80
2023/07/17 18:10:23;;;;;;;4.05;2.67;;;;;;;;;;10328000;28;20039;-80
2023/07/17 18:15:23;;;;;;;5.03;2.77;;;;;;;;;;10341375;28;20046;-80
2023/07/17 18:20:23;;;;;;;3.67;2.43;;;;;;;;;;10337037;28;20122;-80
2023/07/17 18:25:24;;;;;;;4.18;2.55;;;;;;;;;;10338594;28;20085;-80
2023/07/17 18:30:24;;;;;;;6.43;4.50;;;;;;;;;;10364884;28;20249;-80
2023/07/17 18:35:37;;;;;;;4.68;2.72;;;;;;;;;;10339522;28;20042;-82
2023/07/17 18:40:38;;;;;;;4.15;2.70;;;;;;;;;;10341813;28;20073;-84
2023/07/17 18:45:38;;;;;;;4.00;2.25;;;;;;;;;;10338574;28;20529;-80
2023/07/17 18:50:39;;;;;;;3.30;2.50;;;;;;;;;;10351735;28;20061;-79
2023/07/17 18:55:39;;;;;;;4.57;2.35;;;;;;;;;;10329773;28;20042;-77
2023/07/17 19:00:41;;;;;;;2.80;2.33;;;;;;;;;;10348159;28;20033;-76
2023/07/17 19:05:42;;;;;;;4.07;2.67;;;;;;;;;;10330067;28;20034;-81
2023/07/17 19:10:43;;;;;;;3.58;2.55;;;;;;;;;;10352806;28;20038;-80
2023/07/17 19:15:44;;;;;;;5.30;3.00;;;;;;;;;;10355455;28;20050;-80
2023/07/17 19:20:45;;;;;;;4.88;3.63;;;;;;;;;;10343457;28;20034;-79
2023/07/17 19:25:45;;;;;;;3.53;2.67;;;;;;;;;;10338467;28;21817;-78
2023/07/17 19:30:46;;;;;;;4.17;2.50;;;;;;;;;;10327274;28;20295;-76
2023/07/17 19:35:46;;;;;;;3.22;2.30;;;;;;;;;;10340702;28;20038;-78
2023/07/17 19:40:46;;;;;;;2.97;2.43;;;;;;;;;;10343464;28;20153;-81
2023/07/17 19:45:47;;;;;;;3.67;2.50;;;;;;;;;;10341585;28;20285;-77
2023/07/17 19:50:48;;;;;;;7.03;2.70;;;;;;;;;;10348682;28;20117;-79
2023/07/17 19:55:49;;;;;;;3.83;2.40;;;;;;;;;;10346840;28;20137;-78
2023/07/17 20:00:49;;;;;;;3.03;2.53;;;;;;;;;;10335696;28;20042;-78
2023/07/17 20:05:49;;;;;;;4.40;2.47;;;;;;;;;;10348875;28;20038;-79
2023/07/17 20:10:50;;;;;;;4.38;3.45;;;;;;;;;;10341790;28;20152;-77
2023/07/17 20:15:51;;;;;;;5.82;2.72;;;;;;;;;;10347208;28;20052;-82
2023/07/17 20:20:52;;;;;;;5.63;3.00;;;;;;;;;;10332423;28;20068;-77
2023/07/17 20:25:52;;;;;;;3.28;2.70;;;;;;;;;;10341282;28;20191;-79
2023/07/17 20:30:52;;;;;;;4.47;3.00;;;;;;;;;;10338597;28;20745;-77
2023/07/17 20:35:53;;;;;;;5.60;2.80;;;;;;;;;;10339956;28;20121;-77
2023/07/17 20:40:53;;;;;;;5.88;2.80;;;;;;;;;;10330842;28;20052;-83
2023/07/17 20:45:54;;;;;;;4.70;3.00;;;;;;;;;;10358869;28;20120;-81
2023/07/17 20:51:01;;;;;;;3.35;2.75;;;;;;;;;;10308812;28;20073;-78
2023/07/17 20:56:02;;;;;;;4.75;2.67;;;;;;;;;;10341792;28;20557;-77
2023/07/17 21:01:15;;;;;;;3.90;2.63;;;;;;;;;;10337251;28;20088;-83
2023/07/17 21:06:15;;;;;;;4.53;3.00;;;;;;;;;;10338013;28;20050;-78
2023/07/17 21:11:15;;;;;;;4.72;2.65;;;;;;;;;;10343426;28;20073;-79
2023/07/17 21:16:16;;;;;;;4.30;3.03;;;;;;;;;;10344325;28;20550;-83
2023/07/17 21:21:16;;;;;;;5.00;3.10;;;;;;;;;;10324156;28;20046;-78
2023/07/17 21:26:17;;;;;;;4.57;3.05;;;;;;;;;;10335998;28;20042;-80
2023/07/17 21:31:17;;;;;;;4.63;2.97;;;;;;;;;;10350980;28;20034;-81
2023/07/17 21:36:18;;;;;;;4.93;3.40;;;;;;;;;;10330946;28;20736;-80
2023/07/17 21:41:18;;;;;;;7.83;3.00;;;;;;;;;;10347273;28;20454;-80
2023/07/17 21:46:18;;;;;;;4.60;2.70;;;;;;;;;;10324183;28;20297;-80
2023/07/17 21:51:19;;;;;;;3.47;2.67;;;;;;;;;;10332384;28;20045;-78
2023/07/17 21:56:20;;;;;;;3.30;2.78;;;;;;;;;;10333469;28;20042;-79
2023/07/17 22:01:20;;;;;;;3.20;2.67;;;;;;;;;;10337826;28;20034;-79
2023/07/17 22:06:22;;;;;;;5.00;2.77;;;;;;;;;;10338018;28;20042;-78
2023/07/17 22:11:22;;;;;;;5.55;3.22;;;;;;;;;;10329224;28;20319;-79
2023/07/17 22:16:23;;;;;;;5.73;3.07;;;;;;;;;;10340678;28;20862;-78
2023/07/17 22:21:23;;;;;;;4.25;2.65;;;;;;;;;;10334365;28;20044;-79
2023/07/17 22:26:24;;;;;;;5.43;3.00;;;;;;;;;;10335788;28;20049;-78
2023/07/17 22:31:24;;;;;;;5.87;3.37;;;;;;;;;;10320842;28;20042;-77
2023/07/17 22:36:24;;;;;;;8.30;3.27;;;;;;;;;;10328522;28;20677;-77
2023/07/17 22:41:25;;;;;;;5.03;3.03;;;;;;;;;;10315389;28;20049;-77
2023/07/17 22:46:25;;;;;;;5.20;3.00;;;;;;;;;;10340551;28;20042;-78
2023/07/17 22:51:25;;;;;;;5.30;3.33;;;;;;;;;;10343793;28;20035;-76
2023/07/17 22:56:26;;;;;;;5.57;3.10;;;;;;;;;;10331708;28;20319;-79
2023/07/17 23:01:26;;;;;;;5.37;3.10;;;;;;;;;;10346913;28;20074;-78
2023/07/17 23:06:26;;;;;;;4.60;3.07;;;;;;;;;;10332453;28;20371;-80
2023/07/17 23:11:27;;;;;;;5.88;3.10;;;;;;;;;;10325258;28;20053;-81
2023/07/17 23:16:27;;;;;;;5.78;3.13;;;;;;;;;;10327947;28;20167;-83
2023/07/17 23:21:28;;;;;;;5.20;2.90;;;;;;;;;;10343261;28;20041;-81
2023/07/17 23:26:28;;;;;;;5.80;3.27;;;;;;;;;;10340119;28;20070;-79
2023/07/17 23:31:29;;;;;;;5.22;3.22;;;;;;;;;;10335476;28;20392;-78
2023/07/17 23:36:30;;;;;;;7.10;3.17;;;;;;;;;;10347049;28;20073;-76
2023/07/17 23:41:31;;;;;;;4.82;3.10;;;;;;;;;;10343535;28;20033;-77
2023/07/17 23:46:31;;;;;;;5.57;3.67;;;;;;;;;;10325205;28;20060;-77
2023/07/17 23:51:31;;;;;;;5.03;3.20;;;;;;;;;;10328530;28;20038;-79
2023/07/17 23:56:33;;;;;;;4.87;3.60;;;;;;;;;;10346545;28;20470;-76
